Time;durP1;ratioP1;P1;durP2;ratioP2;P2;SDS_P1;SDS_P2;PMS_P1;PMS_P2;Temp;Humidity;BMP_temperature;BMP_pressure;BME280_temperature;BME280_humidity;BME280_pressure;Samples;Min_cycle;Max_cycle;Signal;HPM_P1;HPM_P2
2022/03/22 00:00:25;;;;;;;24.08;12.43;;;;;;;-2.76;76.26;92106.16;4992257;28;20108;-59
2022/03/22 00:02:50;;;;;;;22.15;11.98;;;;;;;-2.75;76.14;92074.69;4991897;28;20057;-59
2022/03/22 00:05:16;;;;;;;26.23;15.50;;;;;;;-2.54;74.96;92091.91;4991975;28;20051;-59
2022/03/22 00:07:42;;;;;;;16.02;9.70;;;;;;;-2.59;74.13;92085.72;4992119;28;20029;-59
2022/03/22 00:10:09;;;;;;;17.00;9.70;;;;;;;-2.55;73.21;92089.50;4992146;28;20038;-59
2022/03/22 00:12:35;;;;;;;19.23;10.65;;;;;;;-2.56;73.01;92088.72;4991962;28;20061;-59
2022/03/22 00:15:05;;;;;;;21.27;11.38;;;;;;;-2.61;73.37;92083.31;4991987;28;20540;-59
2022/03/22 00:17:30;;;;;;;21.83;10.98;;;;;;;-2.46;72.93;92078.69;4992055;28;20034;-60
2022/03/22 00:19:55;;;;;;;18.13;9.98;;;;;;;-2.50;72.85;92081.91;4991693;28;20416;-60
2022/03/22 00:22:21;;;;;;;22.40;11.27;;;;;;;-2.54;73.72;92080.69;4991703;28;20436;-61
2022/03/22 00:24:47;;;;;;;18.05;9.93;;;;;;;-2.49;74.04;92078.31;4998122;28;20073;-61
2022/03/22 00:27:12;;;;;;;19.25;10.25;;;;;;;-2.37;73.40;92076.66;4995748;28;20060;-60
2022/03/22 00:29:38;;;;;;;21.42;10.02;;;;;;;-2.44;72.31;92079.28;4991918;28;20038;-60
2022/03/22 00:32:07;;;;;;;20.88;9.88;;;;;;;-2.46;72.75;92072.69;4991902;28;20480;-60
2022/03/22 00:34:32;;;;;;;21.83;10.55;;;;;;;-2.33;72.41;92083.09;4992067;28;20038;-59
2022/03/22 00:36:58;;;;;;;19.17;9.13;;;;;;;-2.44;73.06;92071.47;4991847;28;20037;-61
2022/03/22 00:39:25;;;;;;;20.38;9.77;;;;;;;-2.28;72.33;92082.47;4991796;28;20447;-60
2022/03/22 00:41:52;;;;;;;18.85;9.80;;;;;;;-2.25;72.15;92082.88;4991797;28;20022;-60
2022/03/22 00:44:18;;;;;;;19.77;10.63;;;;;;;-2.13;71.80;92078.63;4991664;28;20562;-60
2022/03/22 00:46:43;;;;;;;16.17;8.18;;;;;;;-2.08;72.33;92077.22;4991552;28;20027;-61
2022/03/22 00:49:09;;;;;;;17.30;8.65;;;;;;;-2.09;71.65;92088.66;4991844;28;20026;-60
2022/03/22 00:51:35;;;;;;;18.88;11.02;;;;;;;-2.05;71.34;92068.97;4991789;28;20030;-61
2022/03/22 00:54:03;;;;;;;17.15;8.98;;;;;;;-2.11;70.80;92076.63;4991561;28;20404;-60
2022/03/22 00:56:29;;;;;;;16.13;8.95;;;;;;;-2.14;70.50;92079.66;4991593;28;20400;-61
2022/03/22 01:01:40;;;;;;;21.13;9.50;;;;;;;-1.96;69.46;92068.56;4991906;28;20460;-61
2022/03/22 01:04:06;;;;;;;21.50;11.43;;;;;;;-1.81;68.74;92074.34;4991649;28;20113;-60
2022/03/22 01:06:33;;;;;;;15.77;8.70;;;;;;;-1.99;70.08;92068.19;4991354;28;20054;-61
2022/03/22 01:08:59;;;;;;;19.33;10.13;;;;;;;-1.92;69.70;92066.34;4991534;28;20053;-61
2022/03/22 01:11:25;;;;;;;17.02;10.25;;;;;;;-1.96;69.15;92063.34;4990326;28;20085;-61
2022/03/22 01:13:50;;;;;;;14.88;8.45;;;;;;;-1.86;68.89;92065.53;4991371;28;20104;-61
2022/03/22 01:16:16;;;;;;;13.40;8.07;;;;;;;-1.88;68.15;92059.75;4991383;28;20030;-61
2022/03/22 01:18:42;;;;;;;19.13;9.85;;;;;;;-1.96;68.52;92063.34;4991420;28;20038;-61
2022/03/22 01:21:08;;;;;;;16.45;9.57;;;;;;;-1.92;68.54;92063.75;4991501;28;20041;-61
2022/03/22 01:23:33;;;;;;;14.48;7.95;;;;;;;-1.91;68.53;92063.53;4991264;28;20022;-61
2022/03/22 01:25:59;;;;;;;18.20;8.40;;;;;;;-1.82;68.57;92062.31;4991440;28;20109;-61
2022/03/22 01:28:25;;;;;;;16.02;8.32;;;;;;;-1.94;69.59;92060.53;4991418;28;20034;-61
2022/03/22 01:30:50;;;;;;;15.00;7.50;;;;;;;-1.83;69.46;92062.53;4991425;28;20026;-60
2022/03/22 01:33:17;;;;;;;16.83;8.50;;;;;;;-1.93;70.08;92059.53;4994366;28;20050;-60
2022/03/22 01:35:43;;;;;;;20.60;9.27;;;;;;;-1.94;69.72;92063.16;4994866;28;20506;-60
2022/03/22 01:38:09;;;;;;;14.55;9.25;;;;;;;-1.87;69.67;92053.50;4995086;28;20385;-61
2022/03/22 01:40:35;;;;;;;18.42;10.65;;;;;;;-1.81;69.20;92055.28;4994765;28;20622;-60
2022/03/22 01:43:01;;;;;;;20.30;10.88;;;;;;;-1.74;69.38;92055.25;4994887;28;20113;-60
2022/03/22 01:45:26;;;;;;;18.00;11.10;;;;;;;-1.68;68.95;92065.66;4994770;28;20087;-61
2022/03/22 01:47:58;;;;;;;23.40;10.95;;;;;;;-1.67;68.98;92058.66;4994682;28;20026;-61
2022/03/22 01:50:23;;;;;;;22.55;11.98;;;;;;;-1.55;67.90;92057.78;4994803;28;20035;-61
2022/03/22 01:52:49;;;;;;;17.55;9.95;;;;;;;-1.63;68.99;92054.59;4994491;28;20030;-61
2022/03/22 01:55:19;;;;;;;17.75;9.05;;;;;;;-1.72;70.34;92053.25;4994767;28;20034;-61
2022/03/22 01:57:45;;;;;;;15.88;8.73;;;;;;;-1.76;70.70;92052.84;4994461;28;20436;-60
2022/03/22 02:00:14;;;;;;;20.20;11.90;;;;;;;-1.70;70.10;92053.84;4994450;28;20041;-61
2022/03/22 02:08:11;;;;;;;13.88;8.07;;;;;;;-1.61;69.37;92048.16;4994493;28;20029;-61
2022/03/22 02:10:38;;;;;;;17.98;9.15;;;;;;;-1.60;69.65;92041.94;4994502;28;20416;-61
2022/03/22 02:13:04;;;;;;;17.23;9.80;;;;;;;-1.53;68.97;92042.72;4994134;28;20061;-61
2022/03/22 02:15:29;;;;;;;16.38;8.25;;;;;;;-1.67;69.39;92038.56;4994148;28;20093;-60
2022/03/22 02:17:55;;;;;;;18.00;9.45;;;;;;;-1.52;69.18;92039.09;4994126;28;20136;-61
2022/03/22 02:20:20;;;;;;;18.63;9.68;;;;;;;-1.45;68.33;92036.44;4994093;28;20042;-61
2022/03/22 02:22:58;;;;;;;15.50;8.65;;;;;;;-1.40;67.65;92041.06;4994053;28;20018;-61
2022/03/22 02:25:24;;;;;;;15.07;6.75;;;;;;;-1.46;67.39;92040.06;4994178;28;20041;-61
2022/03/22 02:27:53;;;;;;;17.58;7.88;;;;;;;-1.47;67.12;92035.06;4997019;28;20026;-60
2022/03/22 02:30:21;;;;;;;19.65;9.45;;;;;;;-1.49;67.13;92029.25;4994817;28;20057;-60
2022/03/22 02:32:51;;;;;;;15.95;8.68;;;;;;;-1.44;66.82;92034.63;4993781;28;20109;-60
2022/03/22 02:35:17;;;;;;;23.15;11.10;;;;;;;-1.39;66.87;92032.22;4993866;28;20049;-61
2022/03/22 02:37:43;;;;;;;22.00;11.25;;;;;;;-1.27;66.23;92040.97;4993744;28;20018;-61
2022/03/22 02:40:12;;;;;;;14.65;9.10;;;;;;;-1.19;65.68;92035.50;4993689;28;20581;-61
2022/03/22 02:42:42;;;;;;;18.95;10.60;;;;;;;-1.14;65.66;92029.66;4993206;28;20498;-61
2022/03/22 02:45:09;;;;;;;18.40;10.35;;;;;;;-1.11;65.58;92030.00;4993831;28;20031;-61
2022/03/22 02:47:34;;;;;;;20.85;11.38;;;;;;;-1.08;64.71;92032.22;4993786;28;20034;-61
2022/03/22 02:50:00;;;;;;;24.10;12.07;;;;;;;-1.05;64.89;92039.63;4993745;28;20032;-61
2022/03/22 02:52:25;;;;;;;26.85;13.43;;;;;;;-1.02;64.95;92031.38;4993550;28;20048;-61
2022/03/22 02:54:51;;;;;;;31.55;15.30;;;;;;;-1.03;65.14;92028.97;4993399;28;20109;-61
2022/03/22 02:57:17;;;;;;;27.83;13.65;;;;;;;-1.04;65.64;92033.41;4993622;28;20073;-61
2022/03/22 02:59:42;;;;;;;17.30;8.70;;;;;;;-0.98;64.81;92034.34;4993251;28;20552;-61
2022/03/22 03:02:08;;;;;;;14.80;9.32;;;;;;;-0.94;64.60;92023.28;4993043;28;20026;-61
2022/03/22 03:04:33;;;;;;;21.25;10.50;;;;;;;-1.00;64.72;92028.53;5131557;22;21349;-64
2022/03/22 03:06:58;;;;;;;22.48;11.13;;;;;;;-0.89;64.92;92034.91;5012625;28;20080;-64
2022/03/22 03:09:24;;;;;;;18.90;11.60;;;;;;;-0.87;64.45;92018.00;5012558;28;20042;-64
2022/03/22 03:11:49;;;;;;;24.13;11.15;;;;;;;-0.82;64.71;92020.78;5012571;28;20026;-64
2022/03/22 03:16:59;;;;;;;27.45;13.00;;;;;;;-0.75;63.16;92025.97;5012641;28;20522;-65
2022/03/22 03:19:25;;;;;;;23.48;9.75;;;;;;;-0.72;63.06;92017.69;5012653;28;20049;-65
2022/03/22 03:21:50;;;;;;;23.65;11.20;;;;;;;-0.81;64.42;92032.03;5012311;28;20026;-65
2022/03/22 03:24:16;;;;;;;18.60;9.85;;;;;;;-0.93;66.44;92040.56;5012080;28;20026;-66
2022/03/22 03:26:41;;;;;;;20.30;9.50;;;;;;;-0.85;66.33;92034.25;5012192;28;20510;-65
2022/03/22 03:29:09;;;;;;;16.73;8.43;;;;;;;-0.77;65.02;92031.41;5012126;28;20076;-66
2022/03/22 03:31:34;;;;;;;18.13;8.77;;;;;;;-0.75;64.42;92028.56;5012317;28;20049;-66
2022/03/22 03:34:00;;;;;;;16.85;9.02;;;;;;;-0.84;65.14;92024.63;5012113;28;20466;-66
2022/03/22 03:36:25;;;;;;;22.75;11.10;;;;;;;-0.80;65.73;92031.00;5011919;28;20410;-65
2022/03/22 03:38:50;;;;;;;19.10;9.45;;;;;;;-0.74;65.06;92025.75;5012061;28;20480;-65
2022/03/22 03:47:03;;;;;;;19.83;11.73;;;;;;;-0.87;64.64;92019.81;5011936;28;20052;-65
2022/03/22 03:47:04;;;;;;;23.63;10.85;;;;;;;-0.88;63.93;92020.84;5011783;28;20038;-65
2022/03/22 03:49:50;;;;;;;16.42;8.70;;;;;;;-0.84;63.31;92020.19;5010829;28;20033;-65
2022/03/22 03:52:18;;;;;;;26.60;12.05;;;;;;;-0.78;63.05;92023.78;5011348;28;20501;-65
2022/03/22 03:54:45;;;;;;;25.65;12.40;;;;;;;-0.79;63.15;92014.31;5011141;28;20641;-65
2022/03/22 03:57:11;;;;;;;22.02;10.52;;;;;;;-0.79;62.96;92027.38;5011728;28;20060;-65
2022/03/22 03:59:37;;;;;;;21.33;9.98;;;;;;;-0.81;63.15;92019.75;5011639;28;20089;-65
2022/03/22 04:02:04;;;;;;;24.33;11.70;;;;;;;-0.87;63.21;92025.84;5011633;28;20508;-66
2022/03/22 04:04:29;;;;;;;26.92;12.32;;;;;;;-0.93;63.31;92021.47;5011442;28;20069;-66
2022/03/22 04:06:55;;;;;;;21.98;12.45;;;;;;;-0.86;63.19;92021.41;5011588;28;20135;-65
2022/03/22 04:09:20;;;;;;;23.52;11.45;;;;;;;-0.90;63.44;92023.66;5011543;28;20091;-65
2022/03/22 04:11:46;;;;;;;25.15;10.75;;;;;;;-1.07;64.12;92028.59;5011594;28;20029;-65
2022/03/22 04:14:12;;;;;;;18.67;10.27;;;;;;;-1.15;63.78;92013.19;5011302;28;20026;-65
2022/03/22 04:16:39;;;;;;;20.60;10.88;;;;;;;-1.18;64.72;92026.66;5011503;28;20030;-65
2022/03/22 04:19:07;;;;;;;17.95;10.43;;;;;;;-1.32;66.09;92033.78;5011428;28;20038;-65
2022/03/22 04:21:34;;;;;;;21.40;10.93;;;;;;;-1.45;66.51;92025.22;5011435;28;20022;-65
2022/03/22 04:24:01;;;;;;;25.48;11.50;;;;;;;-1.56;66.79;92021.47;5011416;28;20033;-65
2022/03/22 04:26:27;;;;;;;17.70;10.45;;;;;;;-1.66;66.83;92024.53;5011202;28;20060;-65
2022/03/22 04:34:20;;;;;;;21.25;12.20;;;;;;;-1.52;65.96;92023.44;5011117;28;20040;-64
2022/03/22 04:36:55;;;;;;;28.20;12.73;;;;;;;-1.55;66.46;92023.88;5011289;28;20021;-64
2022/03/22 04:39:30;;;;;;;25.35;11.40;;;;;;;-1.54;66.61;92022.06;5011192;28;20026;-65
2022/03/22 04:41:56;;;;;;;23.17;10.30;;;;;;;-1.56;66.97;92017.06;5011221;28;20030;-66
2022/03/22 04:44:22;;;;;;;26.48;11.75;;;;;;;-1.59;67.24;92025.28;5011327;28;20084;-65
2022/03/22 04:46:48;;;;;;;22.92;11.75;;;;;;;-1.63;67.29;92025.91;5011197;28;20049;-65
2022/03/22 04:49:14;;;;;;;32.60;12.40;;;;;;;-1.72;70.46;92030.56;5011165;28;20152;-65
2022/03/22 04:57:07;;;;;;;24.55;12.38;;;;;;;-1.41;67.51;92014.16;5009973;28;20026;-66
2022/03/22 04:59:34;;;;;;;26.65;11.45;;;;;;;-1.20;66.74;92020.84;5010945;28;20029;-65
2022/03/22 05:01:59;;;;;;;24.75;12.15;;;;;;;-1.17;65.81;92033.47;5010952;28;20030;-64
2022/03/22 05:04:25;;;;;;;22.20;11.77;;;;;;;-0.92;64.07;92021.25;5010713;28;20396;-65
2022/03/22 05:06:51;;;;;;;20.27;10.75;;;;;;;-0.79;63.13;92022.16;5011770;28;20055;-64
2022/03/22 05:09:16;;;;;;;23.23;11.98;;;;;;;-0.78;63.20;92021.16;5014814;28;20414;-64
2022/03/22 05:11:42;;;;;;;33.17;11.85;;;;;;;-0.51;64.15;92021.72;5014711;28;20506;-64
2022/03/22 05:14:08;;;;;;;24.20;13.25;;;;;;;1.07;59.69;92021.66;5020132;28;20119;-62
2022/03/22 05:16:35;;;;;;;29.20;13.43;;;;;;;2.14;55.76;92018.88;5023954;28;20109;-63
2022/03/22 05:19:01;;;;;;;23.65;13.10;;;;;;;2.46;54.42;92025.31;5014560;28;20034;-63
2022/03/22 05:21:27;;;;;;;33.75;14.93;;;;;;;2.98;52.70;92022.63;5014410;28;20163;-63
2022/03/22 05:23:54;;;;;;;40.80;15.07;;;;;;;3.59;52.64;92021.81;5012951;28;20534;-63
2022/03/22 05:26:20;;;;;;;44.22;15.68;;;;;;;5.32;47.91;92012.66;5014260;28;20487;-63
2022/03/22 05:28:45;;;;;;;31.08;14.40;;;;;;;6.05;45.30;92016.47;5014377;28;20529;-63
2022/03/22 05:31:13;;;;;;;33.38;16.25;;;;;;;6.51;44.25;92014.09;5014406;28;20387;-63
2022/03/22 05:33:38;;;;;;;35.22;15.93;;;;;;;6.93;43.58;92024.59;5014197;28;20428;-64
2022/03/22 05:36:05;;;;;;;34.35;16.45;;;;;;;8.34;41.65;92017.88;5014138;28;20088;-64
2022/03/22 05:38:31;;;;;;;38.38;14.68;;;;;;;10.20;39.20;92010.31;5014228;28;20515;-65
2022/03/22 05:40:58;;;;;;;49.30;18.58;;;;;;;9.85;37.97;92009.50;5014202;28;20076;-65
2022/03/22 05:43:26;;;;;;;40.08;17.80;;;;;;;7.50;40.62;92021.84;5012789;28;20389;-64
2022/03/22 05:45:52;;;;;;;62.53;21.90;;;;;;;6.77;42.80;92026.38;5014055;28;20037;-65
2022/03/22 05:48:18;;;;;;;51.30;18.27;;;;;;;8.90;40.01;92024.91;5014068;28;20349;-64
2022/03/22 05:50:44;;;;;;;389.05;45.80;;;;;;;10.63;38.39;92013.13;5013988;28;20036;-64
2022/03/22 05:53:11;;;;;;;86.90;25.92;;;;;;;10.77;37.36;92020.16;5013936;28;20033;-64
2022/03/22 05:55:37;;;;;;;42.67;17.17;;;;;;;13.48;33.68;92018.38;5013787;28;20037;-64
2022/03/22 05:58:07;;;;;;;134.43;26.73;;;;;;;12.25;35.45;92020.88;5013799;28;20484;-64
2022/03/22 06:00:33;;;;;;;104.35;22.23;;;;;;;12.28;34.64;92009.63;5013705;28;20483;-64
2022/03/22 06:02:59;;;;;;;75.38;17.48;;;;;;;13.61;33.83;92013.34;5013732;28;20087;-64
2022/03/22 06:05:25;;;;;;;73.53;27.20;;;;;;;14.38;32.04;92005.16;5013581;28;20055;-64
2022/03/22 06:07:51;;;;;;;40.67;19.92;;;;;;;15.99;30.47;92002.97;5012302;28;20470;-64
2022/03/22 06:10:17;;;;;;;29.70;14.98;;;;;;;15.58;28.99;91998.75;5013527;28;20037;-64
2022/03/22 06:12:48;;;;;;;35.30;16.35;;;;;;;14.73;29.63;92016.09;5013415;28;20021;-64
2022/03/22 06:15:18;;;;;;;67.80;17.33;;;;;;;14.02;31.09;92024.69;5013645;28;20074;-64
2022/03/22 06:17:46;;;;;;;47.38;20.55;;;;;;;15.25;29.25;92006.41;5012939;28;20030;-64
2022/03/22 06:20:12;;;;;;;62.90;23.50;;;;;;;15.00;29.38;92007.91;5013431;28;20503;-64
2022/03/22 06:22:38;;;;;;;44.75;18.23;;;;;;;13.48;30.51;92009.59;5013333;28;20100;-64
2022/03/22 06:25:04;;;;;;;34.40;17.15;;;;;;;15.16;29.79;92003.72;5013288;28;20729;-64
2022/03/22 06:27:29;;;;;;;52.75;18.52;;;;;;;16.65;28.74;92003.56;5013177;28;20037;-63
2022/03/22 06:29:55;;;;;;;46.58;19.38;;;;;;;18.14;26.82;92009.59;5013187;28;20037;-64
2022/03/22 06:32:20;;;;;;;66.05;20.50;;;;;;;18.11;27.08;92007.56;5012962;28;20187;-64
2022/03/22 06:34:47;;;;;;;106.93;23.45;;;;;;;17.99;27.04;92012.88;5013279;28;20411;-64
2022/03/22 06:37:13;;;;;;;29.75;16.98;;;;;;;16.75;26.92;92014.00;5013099;28;20025;-64
2022/03/22 06:39:39;;;;;;;41.08;19.83;;;;;;;16.89;27.07;92009.25;5013171;28;20188;-64
2022/03/22 06:42:05;;;;;;;36.10;16.98;;;;;;;18.04;25.57;92015.38;5012932;28;20513;-63
2022/03/22 06:44:31;;;;;;;38.22;15.82;;;;;;;20.02;24.28;92009.84;5012690;28;20492;-64
2022/03/22 06:46:56;;;;;;;25.20;11.63;;;;;;;20.89;23.08;92003.09;5012945;28;20069;-64
2022/03/22 06:49:23;;;;;;;20.95;11.07;;;;;;;21.93;22.39;92018.13;5012852;28;20036;-64
2022/03/22 06:51:49;;;;;;;32.40;12.43;;;;;;;23.20;21.41;92018.53;5012576;28;20030;-63
2022/03/22 06:54:14;;;;;;;36.03;13.90;;;;;;;23.24;21.00;92008.53;5012494;28;20049;-65
2022/03/22 06:56:40;;;;;;;24.58;13.07;;;;;;;22.97;20.79;92011.13;5012576;28;20569;-65
2022/03/22 06:59:05;;;;;;;24.92;12.85;;;;;;;20.41;22.58;92012.97;5012642;28;20071;-64
2022/03/22 07:01:31;;;;;;;40.75;15.15;;;;;;;18.93;23.21;92007.03;5012696;28;20030;-64
2022/03/22 07:03:57;;;;;;;58.38;24.98;;;;;;;18.40;24.38;92011.31;5012320;28;20026;-64
2022/03/22 07:06:23;;;;;;;131.93;21.88;;;;;;;18.93;24.47;92017.81;5012182;28;20050;-65
2022/03/22 07:08:48;;;;;;;55.67;20.02;;;;;;;18.62;24.71;92008.28;5012262;28;20022;-63
2022/03/22 07:13:58;;;;;;;25.63;17.02;;;;;;;21.12;22.15;92009.50;5012254;28;20036;-64
2022/03/22 07:16:27;;;;;;;24.13;14.68;;;;;;;22.82;21.17;92011.16;5012230;28;20026;-64
2022/03/22 07:18:53;;;;;;;30.48;15.63;;;;;;;23.87;20.88;92005.38;5012215;28;20049;-65
2022/03/22 07:21:19;;;;;;;118.70;21.23;;;;;;;20.82;22.61;92005.59;5012249;28;20030;-64
2022/03/22 07:23:45;;;;;;;29.33;16.02;;;;;;;18.51;24.27;91999.00;5012176;28;20088;-64
2022/03/22 07:26:10;;;;;;;27.70;15.13;;;;;;;20.10;22.93;92004.66;5011925;28;20104;-64
2022/03/22 07:28:37;;;;;;;26.25;14.90;;;;;;;19.24;23.20;92001.94;5012123;28;20460;-64
2022/03/22 07:31:03;;;;;;;23.63;14.90;;;;;;;17.29;25.00;91998.97;5011225;28;20026;-64
2022/03/22 07:33:29;;;;;;;198.52;32.90;;;;;;;14.28;27.85;91994.69;5011704;28;20089;-65
2022/03/22 07:35:55;;;;;;;71.03;19.40;;;;;;;12.30;29.93;92004.78;5011716;28;20038;-63
2022/03/22 07:38:20;;;;;;;64.78;18.33;;;;;;;15.38;27.77;92004.72;5011807;28;20045;-62
2022/03/22 07:40:46;;;;;;;42.22;18.58;;;;;;;18.69;25.51;91992.38;5011786;28;20040;-63
2022/03/22 07:43:11;;;;;;;33.75;17.75;;;;;;;21.27;22.78;91993.66;5011648;28;20057;-63
2022/03/22 07:45:37;;;;;;;69.85;18.92;;;;;;;21.88;23.46;91995.94;5011887;28;20026;-63
2022/03/22 07:48:04;;;;;;;29.90;16.75;;;;;;;22.04;22.19;91997.47;5011961;28;20514;-63
2022/03/22 07:53:14;;;;;;;29.13;16.30;;;;;;;18.03;24.26;91994.16;5011592;28;20088;-63
2022/03/22 07:55:42;;;;;;;41.50;16.27;;;;;;;15.40;26.90;91994.47;5011606;28;20029;-65
2022/03/22 07:58:09;;;;;;;29.58;15.70;;;;;;;16.59;26.29;91986.03;5011869;28;20041;-63
2022/03/22 08:00:38;;;;;;;29.45;15.95;;;;;;;15.13;27.21;91990.09;5011579;28;20037;-64
2022/03/22 08:03:04;;;;;;;41.33;17.08;;;;;;;13.57;29.12;91996.28;5011501;28;20132;-63
2022/03/22 08:05:32;;;;;;;97.68;19.92;;;;;;;12.14;31.00;91993.56;5011109;28;20073;-63
2022/03/22 08:07:59;;;;;;;44.33;16.70;;;;;;;11.58;31.95;91983.75;5011497;28;20503;-63
2022/03/22 08:10:25;;;;;;;27.52;14.98;;;;;;;10.90;32.89;91994.75;5011397;28;20419;-63
2022/03/22 08:12:51;;;;;;;21.77;13.73;;;;;;;10.85;33.14;91989.47;5011330;28;20038;-63
2022/03/22 08:15:17;;;;;;;29.65;13.25;;;;;;;14.29;29.73;91972.16;5011292;28;20042;-63
2022/03/22 08:17:44;;;;;;;86.45;19.17;;;;;;;15.56;29.52;91979.50;5011374;28;20037;-64
2022/03/22 08:20:10;;;;;;;45.85;15.65;;;;;;;19.79;26.32;91981.75;5011356;28;20050;-64
2022/03/22 08:22:53;;;;;;;43.75;15.20;;;;;;;19.89;26.45;91977.81;5011282;28;20419;-64
2022/03/22 08:25:24;;;;;;;24.27;13.20;;;;;;;23.04;23.49;91977.91;5011223;28;20034;-64
2022/03/22 08:27:51;;;;;;;30.85;13.38;;;;;;;23.98;23.00;91981.06;5011630;28;20042;-64
2022/03/22 08:30:20;;;;;;;83.22;14.93;;;;;;;19.78;26.65;91976.69;5011052;28;20507;-64
2022/03/22 08:32:46;;;;;;;33.28;17.73;;;;;;;11.98;33.58;91979.69;5011026;28;20037;-63
2022/03/22 08:35:12;;;;;;;41.63;21.95;;;;;;;9.20;38.12;91978.84;5011112;28;20033;-63
2022/03/22 08:37:38;;;;;;;21.77;12.43;;;;;;;7.85;41.90;91985.81;5011116;28;20507;-63
2022/03/22 08:40:05;;;;;;;18.58;11.18;;;;;;;6.88;43.33;91984.91;5009767;28;20050;-63
2022/03/22 08:42:30;;;;;;;29.40;13.13;;;;;;;6.12;46.04;91984.53;5014630;28;20038;-63
2022/03/22 08:44:55;;;;;;;54.88;12.00;;;;;;;5.76;47.76;91970.28;5014953;28;20042;-63
2022/03/22 08:47:21;;;;;;;24.77;12.10;;;;;;;5.96;48.86;91988.94;5015140;28;20160;-62
2022/03/22 08:49:48;;;;;;;34.67;14.05;;;;;;;5.78;49.14;91976.09;5015017;28;20561;-63
2022/03/22 08:52:14;;;;;;;216.57;28.48;;;;;;;5.81;48.97;91972.94;5014906;28;20095;-63
2022/03/22 08:54:39;;;;;;;68.55;15.93;;;;;;;6.40;49.26;91970.97;5014848;28;20065;-63
2022/03/22 08:57:05;;;;;;;85.88;14.52;;;;;;;7.11;47.21;91962.50;5014910;28;20419;-64
2022/03/22 08:59:30;;;;;;;24.08;11.98;;;;;;;6.52;50.00;91970.75;5013531;28;20337;-63
2022/03/22 09:01:57;;;;;;;89.30;15.63;;;;;;;7.30;49.41;91966.22;5014666;28;20049;-63
2022/03/22 09:07:07;;;;;;;38.78;16.17;;;;;;;9.93;44.54;91951.50;5015011;28;20252;-63
2022/03/22 09:09:33;;;;;;;41.40;16.52;;;;;;;9.12;45.37;91958.97;5014652;28;20536;-64
2022/03/22 09:11:58;;;;;;;44.08;14.88;;;;;;;11.45;42.48;91962.34;5014703;28;20037;-64
2022/03/22 09:14:24;;;;;;;54.88;16.80;;;;;;;11.25;42.56;91960.75;5014308;28;20789;-64
2022/03/22 09:16:49;;;;;;;19.85;10.32;;;;;;;9.62;44.51;91951.75;5014315;28;20038;-64
2022/03/22 09:19:15;;;;;;;40.03;13.57;;;;;;;8.34;47.43;91972.00;5014475;28;20045;-64
2022/03/22 09:21:40;;;;;;;116.07;17.10;;;;;;;7.59;48.54;91963.06;5014457;28;20439;-63
2022/03/22 09:24:06;;;;;;;25.55;12.02;;;;;;;10.01;46.06;91953.56;5014207;28;20034;-64
2022/03/22 09:26:31;;;;;;;35.47;16.45;;;;;;;13.28;40.69;91954.69;5014337;28;20042;-64
2022/03/22 09:28:58;;;;;;;25.40;12.82;;;;;;;14.71;36.66;91943.31;5014313;28;20052;-64
2022/03/22 09:31:24;;;;;;;25.15;11.27;;;;;;;13.67;37.18;91942.59;5014176;28;20482;-64
2022/03/22 09:33:52;;;;;;;34.78;12.30;;;;;;;14.14;37.76;91943.09;5014061;28;20038;-64
2022/03/22 09:36:18;;;;;;;146.63;35.08;;;;;;;13.24;37.34;91950.22;5014188;28;20045;-64
2022/03/22 09:38:45;;;;;;;27.48;14.23;;;;;;;12.52;40.94;91948.13;5014131;28;20037;-64
2022/03/22 09:41:15;;;;;;;81.32;20.50;;;;;;;12.51;40.55;91939.31;5014107;28;20049;-64
2022/03/22 09:43:48;;;;;;;57.85;29.55;;;;;;;12.60;41.06;91942.09;5013938;28;20066;-63
2022/03/22 09:46:18;;;;;;;41.25;16.20;;;;;;;14.74;36.80;91942.69;5013942;28;20118;-64
2022/03/22 09:48:45;;;;;;;23.13;12.90;;;;;;;16.43;36.29;91935.50;5013960;28;20042;-64
2022/03/22 09:53:55;;;;;;;74.72;18.98;;;;;;;13.34;38.65;91934.75;5012778;28;20056;-64
2022/03/22 09:56:21;;;;;;;43.75;14.10;;;;;;;13.73;39.41;91936.06;5013809;28;20466;-64
2022/03/22 09:58:48;;;;;;;46.45;19.33;;;;;;;15.01;37.02;91939.81;5013641;28;20034;-64
2022/03/22 10:01:14;;;;;;;37.75;15.20;;;;;;;14.05;38.19;91933.16;5013811;28;20132;-64
2022/03/22 10:03:39;;;;;;;73.07;18.75;;;;;;;13.12;39.32;91946.16;5013615;28;20049;-64
2022/03/22 10:06:06;;;;;;;32.38;15.75;;;;;;;11.01;42.60;91940.28;5013545;28;20530;-64
2022/03/22 10:08:31;;;;;;;48.75;20.35;;;;;;;9.80;45.10;91937.03;5013637;28;20040;-64
2022/03/22 10:11:00;;;;;;;45.00;25.10;;;;;;;8.87;47.48;91943.19;5013595;28;20034;-63
2022/03/22 10:13:28;;;;;;;43.88;14.85;;;;;;;8.05;50.21;91940.00;5013365;28;20038;-64
2022/03/22 10:16:02;;;;;;;47.83;14.20;;;;;;;7.96;51.16;91931.78;5013345;28;20033;-63
2022/03/22 10:18:27;;;;;;;35.40;12.73;;;;;;;6.66;52.09;91926.13;5013371;28;20048;-63
2022/03/22 10:21:01;;;;;;;27.38;11.60;;;;;;;5.91;55.44;91934.25;5013524;28;20037;-63
2022/03/22 10:23:28;;;;;;;25.25;12.98;;;;;;;5.83;57.12;91926.75;5013338;28;20038;-64
2022/03/22 10:26:06;;;;;;;47.78;13.88;;;;;;;5.72;57.51;91923.28;5013175;28;20069;-64
2022/03/22 10:28:33;;;;;;;26.90;10.60;;;;;;;5.77;57.37;91916.44;5013253;28;20045;-65
2022/03/22 10:30:59;;;;;;;52.97;12.30;;;;;;;5.95;58.44;91910.75;5011946;28;20129;-64
2022/03/22 10:33:24;;;;;;;21.90;11.15;;;;;;;5.96;57.80;91907.84;5013075;28;20514;-64
2022/03/22 10:35:50;;;;;;;26.77;14.60;;;;;;;6.33;56.38;91903.53;5013010;28;20056;-64
2022/03/22 10:38:19;;;;;;;18.63;10.18;;;;;;;6.36;57.18;91897.75;5013050;28;20120;-64
2022/03/22 10:40:47;;;;;;;27.58;11.13;;;;;;;6.83;55.92;91893.13;5013062;28;20104;-64
2022/03/22 10:43:16;;;;;;;29.92;13.43;;;;;;;6.97;55.54;91895.25;5013087;28;20042;-64
2022/03/22 10:45:46;;;;;;;27.63;14.00;;;;;;;6.51;56.80;91888.00;5012788;28;20419;-63
2022/03/22 10:48:16;;;;;;;78.97;14.52;;;;;;;6.36;56.92;91887.16;5012887;28;20038;-64
2022/03/22 10:50:44;;;;;;;34.17;16.17;;;;;;;6.82;57.26;91870.38;5012875;28;20112;-64
2022/03/22 10:53:14;;;;;;;54.28;15.10;;;;;;;7.11;56.36;91872.53;5012700;28;20048;-64
2022/03/22 10:55:39;;;;;;;68.40;15.73;;;;;;;7.16;55.55;91870.66;5012632;28;20046;-65
2022/03/22 10:58:05;;;;;;;91.15;15.20;;;;;;;7.96;53.90;91862.09;5012755;28;20107;-64
2022/03/22 11:00:31;;;;;;;62.00;25.63;;;;;;;10.58;48.59;91849.00;5012610;28;20507;-64
2022/03/22 11:02:56;;;;;;;322.88;28.00;;;;;;;9.07;50.92;91844.09;5012543;28;20112;-65
2022/03/22 11:05:24;;;;;;;42.75;11.65;;;;;;;12.72;44.40;91854.28;5012011;28;20050;-64
2022/03/22 11:07:53;;;;;;;34.70;12.82;;;;;;;14.77;41.05;91840.28;5012308;28;20050;-65
2022/03/22 11:10:25;;;;;;;82.38;13.18;;;;;;;16.08;38.58;91845.38;5012540;28;20121;-65
2022/03/22 11:12:51;;;;;;;36.63;18.58;;;;;;;16.21;37.96;91835.56;5012197;28;20044;-63
2022/03/22 11:15:18;;;;;;;25.92;10.20;;;;;;;16.40;37.80;91830.59;5012131;28;20042;-63
2022/03/22 11:17:47;;;;;;;152.27;19.00;;;;;;;14.51;39.89;91824.09;5012244;28;20041;-63
2022/03/22 11:20:15;;;;;;;110.97;15.52;;;;;;;15.96;37.85;91824.56;5012193;28;20042;-63
2022/03/22 11:22:54;;;;;;;27.50;10.20;;;;;;;14.45;40.08;91812.75;5012239;28;20576;-63
2022/03/22 11:25:35;;;;;;;45.30;12.88;;;;;;;14.90;39.41;91813.34;5012149;28;20044;-63
2022/03/22 11:28:08;;;;;;;63.83;11.32;;;;;;;14.47;40.11;91807.88;5012121;28;20037;-63
2022/03/22 11:30:39;;;;;;;18.40;9.18;;;;;;;15.68;37.94;91817.97;5010696;28;20042;-64
2022/03/22 11:36:00;;;;;;;28.63;10.63;;;;;;;14.34;39.80;91812.22;5011931;28;20072;-64
2022/03/22 11:38:36;;;;;;;23.85;8.82;;;;;;;13.13;41.46;91813.34;5011930;28;20042;-64
2022/03/22 11:43:46;;;;;;;53.80;13.35;;;;;;;11.58;45.00;91809.72;5011950;28;20067;-64
2022/03/22 11:46:12;;;;;;;32.97;12.07;;;;;;;11.01;46.17;91807.16;5011684;28;20116;-63
2022/03/22 11:48:39;;;;;;;37.20;14.48;;;;;;;11.00;46.78;91799.44;5011965;28;20080;-64
2022/03/22 11:51:06;;;;;;;36.25;10.05;;;;;;;10.46;47.11;91801.53;5011946;28;20132;-64
2022/03/22 11:53:42;;;;;;;21.05;11.30;;;;;;;10.07;48.11;91798.25;5011575;28;20033;-64
2022/03/22 11:56:08;;;;;;;144.73;15.88;;;;;;;10.08;48.43;91784.66;5011896;28;20030;-64
2022/03/22 11:58:33;;;;;;;41.38;9.90;;;;;;;9.40;49.29;91789.38;5011376;28;20373;-64